sensor_id;sensor_type;location;lat;lon;timestamp;P1;durP1;ratioP1;P2;durP2;ratioP2
48550;SDS011;34397;51.176;6.738;2023-04-15T00:02:51;3.80;;;1.88;;
48550;SDS011;34397;51.176;6.738;2023-04-15T00:05:24;5.22;;;1.90;;
48550;SDS011;34397;51.176;6.738;2023-04-15T00:07:57;3.30;;;1.80;;
48550;SDS011;34397;51.176;6.738;2023-04-15T00:10:29;4.53;;;2.10;;
48550;SDS011;34397;51.176;6.738;2023-04-15T00:13:06;4.78;;;2.08;;
48550;SDS011;34397;51.176;6.738;2023-04-15T00:15:38;3.10;;;2.00;;
48550;SDS011;34397;51.176;6.738;2023-04-15T00:18:15;3.35;;;2.05;;
48550;SDS011;34397;51.176;6.738;2023-04-15T00:20:50;5.95;;;2.30;;
48550;SDS011;34397;51.176;6.738;2023-04-15T00:23:26;4.75;;;2.00;;
48550;SDS011;34397;51.176;6.738;2023-04-15T00:25:58;4.82;;;2.30;;
48550;SDS011;34397;51.176;6.738;2023-04-15T00:28:35;3.85;;;2.15;;
48550;SDS011;34397;51.176;6.738;2023-04-15T00:31:09;6.32;;;2.50;;
48550;SDS011;34397;51.176;6.738;2023-04-15T00:33:46;3.55;;;2.22;;
48550;SDS011;34397;51.176;6.738;2023-04-15T00:36:21;4.53;;;2.28;;
48550;SDS011;34397;51.176;6.738;2023-04-15T00:39:05;4.82;;;2.10;;
48550;SDS011;34397;51.176;6.738;2023-04-15T00:41:38;6.85;;;2.22;;
48550;SDS011;34397;51.176;6.738;2023-04-15T00:44:18;3.45;;;2.40;;
48550;SDS011;34397;51.176;6.738;2023-04-15T00:46:50;4.28;;;1.85;;
48550;SDS011;34397;51.176;6.738;2023-04-15T00:49:24;4.53;;;2.17;;
48550;SDS011;34397;51.176;6.738;2023-04-15T00:51:57;3.97;;;2.38;;
48550;SDS011;34397;51.176;6.738;2023-04-15T00:54:29;3.45;;;2.28;;
48550;SDS011;34397;51.176;6.738;2023-04-15T00:57:01;4.60;;;2.50;;
48550;SDS011;34397;51.176;6.738;2023-04-15T00:59:36;4.97;;;2.72;;
48550;SDS011;34397;51.176;6.738;2023-04-15T01:02:08;5.38;;;2.88;;
48550;SDS011;34397;51.176;6.738;2023-04-15T01:04:41;5.35;;;2.78;;
48550;SDS011;34397;51.176;6.738;2023-04-15T01:07:15;6.43;;;2.80;;
48550;SDS011;34397;51.176;6.738;2023-04-15T01:09:49;4.45;;;2.70;;
48550;SDS011;34397;51.176;6.738;2023-04-15T01:12:24;3.65;;;2.30;;
48550;SDS011;34397;51.176;6.738;2023-04-15T01:15:03;5.18;;;2.90;;
48550;SDS011;34397;51.176;6.738;2023-04-15T01:17:37;5.10;;;2.67;;
48550;SDS011;34397;51.176;6.738;2023-04-15T01:20:11;4.68;;;2.45;;
48550;SDS011;34397;51.176;6.738;2023-04-15T01:22:47;5.20;;;2.45;;
48550;SDS011;34397;51.176;6.738;2023-04-15T01:25:25;5.63;;;2.80;;
48550;SDS011;34397;51.176;6.738;2023-04-15T01:28:07;7.57;;;3.55;;
48550;SDS011;34397;51.176;6.738;2023-04-15T01:33:14;6.60;;;2.88;;
48550;SDS011;34397;51.176;6.738;2023-04-15T01:35:49;7.88;;;3.25;;
48550;SDS011;34397;51.176;6.738;2023-04-15T01:38:25;7.65;;;3.20;;
48550;SDS011;34397;51.176;6.738;2023-04-15T01:41:04;7.13;;;3.08;;
48550;SDS011;34397;51.176;6.738;2023-04-15T01:43:37;4.72;;;2.83;;
48550;SDS011;34397;51.176;6.738;2023-04-15T01:46:10;7.07;;;3.35;;
48550;SDS011;34397;51.176;6.738;2023-04-15T01:48:45;8.65;;;3.55;;
48550;SDS011;34397;51.176;6.738;2023-04-15T01:51:17;13.10;;;3.80;;
48550;SDS011;34397;51.176;6.738;2023-04-15T01:53:49;9.27;;;3.65;;
48550;SDS011;34397;51.176;6.738;2023-04-15T01:56:22;9.32;;;3.72;;
48550;SDS011;34397;51.176;6.738;2023-04-15T03:02:43;6.43;;;2.90;;
48550;SDS011;34397;51.176;6.738;2023-04-15T03:05:16;7.45;;;3.03;;
48550;SDS011;34397;51.176;6.738;2023-04-15T03:07:47;5.97;;;2.90;;
48550;SDS011;34397;51.176;6.738;2023-04-15T03:10:20;5.47;;;2.70;;
48550;SDS011;34397;51.176;6.738;2023-04-15T03:12:52;9.45;;;3.03;;
48550;SDS011;34397;51.176;6.738;2023-04-15T03:15:23;8.10;;;3.22;;
48550;SDS011;34397;51.176;6.738;2023-04-15T03:17:57;7.00;;;2.88;;
48550;SDS011;34397;51.176;6.738;2023-04-15T03:20:29;6.38;;;3.10;;
48550;SDS011;34397;51.176;6.738;2023-04-15T03:23:01;5.15;;;3.00;;
48550;SDS011;34397;51.176;6.738;2023-04-15T03:25:33;5.13;;;2.85;;
48550;SDS011;34397;51.176;6.738;2023-04-15T03:28:06;5.07;;;2.75;;
48550;SDS011;34397;51.176;6.738;2023-04-15T03:30:38;4.18;;;2.83;;
48550;SDS011;34397;51.176;6.738;2023-04-15T03:33:11;7.03;;;3.05;;
48550;SDS011;34397;51.176;6.738;2023-04-15T03:35:43;8.85;;;2.95;;
48550;SDS011;34397;51.176;6.738;2023-04-15T03:38:15;4.28;;;2.90;;
48550;SDS011;34397;51.176;6.738;2023-04-15T03:40:46;5.75;;;3.20;;
48550;SDS011;34397;51.176;6.738;2023-04-15T03:43:18;5.15;;;2.67;;
48550;SDS011;34397;51.176;6.738;2023-04-15T03:45:50;4.35;;;3.13;;
48550;SDS011;34397;51.176;6.738;2023-04-15T03:48:23;7.03;;;3.08;;
48550;SDS011;34397;51.176;6.738;2023-04-15T03:50:55;5.00;;;3.05;;
48550;SDS011;34397;51.176;6.738;2023-04-15T03:53:27;5.85;;;3.17;;
48550;SDS011;34397;51.176;6.738;2023-04-15T03:55:59;5.38;;;3.05;;
48550;SDS011;34397;51.176;6.738;2023-04-15T03:58:31;5.57;;;2.60;;
48550;SDS011;34397;51.176;6.738;2023-04-15T04:01:03;5.93;;;2.95;;
48550;SDS011;34397;51.176;6.738;2023-04-15T04:03:36;7.45;;;3.28;;
48550;SDS011;34397;51.176;6.738;2023-04-15T04:06:08;7.78;;;3.80;;
48550;SDS011;34397;51.176;6.738;2023-04-15T04:08:41;4.60;;;2.95;;
48550;SDS011;34397;51.176;6.738;2023-04-15T04:11:13;4.55;;;3.20;;
48550;SDS011;34397;51.176;6.738;2023-04-15T04:13:45;7.22;;;3.00;;
48550;SDS011;34397;51.176;6.738;2023-04-15T04:16:17;6.32;;;3.00;;
48550;SDS011;34397;51.176;6.738;2023-04-15T04:18:50;5.82;;;3.13;;
48550;SDS011;34397;51.176;6.738;2023-04-15T04:21:22;4.40;;;3.03;;
48550;SDS011;34397;51.176;6.738;2023-04-15T04:23:54;7.40;;;3.35;;
48550;SDS011;34397;51.176;6.738;2023-04-15T04:26:27;9.15;;;3.67;;
48550;SDS011;34397;51.176;6.738;2023-04-15T04:28:59;7.85;;;2.80;;
48550;SDS011;34397;51.176;6.738;2023-04-15T04:31:31;4.43;;;3.17;;
48550;SDS011;34397;51.176;6.738;2023-04-15T04:34:04;9.13;;;3.58;;
48550;SDS011;34397;51.176;6.738;2023-04-15T04:36:36;12.27;;;3.40;;
48550;SDS011;34397;51.176;6.738;2023-04-15T04:39:08;5.47;;;2.97;;
48550;SDS011;34397;51.176;6.738;2023-04-15T04:41:40;5.45;;;3.38;;
48550;SDS011;34397;51.176;6.738;2023-04-15T04:44:12;4.85;;;2.90;;
48550;SDS011;34397;51.176;6.738;2023-04-15T04:46:43;5.47;;;2.75;;
48550;SDS011;34397;51.176;6.738;2023-04-15T04:49:17;4.68;;;3.13;;
48550;SDS011;34397;51.176;6.738;2023-04-15T04:51:48;4.78;;;2.80;;
48550;SDS011;34397;51.176;6.738;2023-04-15T04:54:21;6.07;;;2.97;;
48550;SDS011;34397;51.176;6.738;2023-04-15T04:56:53;10.75;;;3.20;;
48550;SDS011;34397;51.176;6.738;2023-04-15T04:59:24;6.50;;;3.08;;
48550;SDS011;34397;51.176;6.738;2023-04-15T05:01:57;5.40;;;2.85;;
48550;SDS011;34397;51.176;6.738;2023-04-15T05:04:30;5.70;;;2.83;;
48550;SDS011;34397;51.176;6.738;2023-04-15T05:07:02;5.00;;;2.70;;
48550;SDS011;34397;51.176;6.738;2023-04-15T05:09:34;6.93;;;3.08;;
48550;SDS011;34397;51.176;6.738;2023-04-15T05:12:06;5.63;;;3.13;;
48550;SDS011;34397;51.176;6.738;2023-04-15T05:14:43;5.38;;;3.00;;
48550;SDS011;34397;51.176;6.738;2023-04-15T05:17:15;8.98;;;3.30;;
48550;SDS011;34397;51.176;6.738;2023-04-15T05:19:49;5.05;;;3.00;;
48550;SDS011;34397;51.176;6.738;2023-04-15T05:22:21;8.60;;;2.97;;
48550;SDS011;34397;51.176;6.738;2023-04-15T05:24:52;7.68;;;3.22;;
48550;SDS011;34397;51.176;6.738;2023-04-15T05:27:24;6.95;;;3.00;;
48550;SDS011;34397;51.176;6.738;2023-04-15T05:29:56;5.03;;;2.85;;
48550;SDS011;34397;51.176;6.738;2023-04-15T05:32:28;7.70;;;3.13;;
48550;SDS011;34397;51.176;6.738;2023-04-15T05:35:01;15.13;;;4.00;;
48550;SDS011;34397;51.176;6.738;2023-04-15T05:37:33;7.18;;;3.42;;
48550;SDS011;34397;51.176;6.738;2023-04-15T05:40:05;6.60;;;3.75;;
48550;SDS011;34397;51.176;6.738;2023-04-15T05:42:39;8.82;;;3.40;;
48550;SDS011;34397;51.176;6.738;2023-04-15T05:45:11;8.63;;;3.90;;
48550;SDS011;34397;51.176;6.738;2023-04-15T05:47:43;8.10;;;3.38;;
48550;SDS011;34397;51.176;6.738;2023-04-15T05:52:48;8.32;;;3.58;;
48550;SDS011;34397;51.176;6.738;2023-04-15T05:55:20;9.30;;;3.92;;
48550;SDS011;34397;51.176;6.738;2023-04-15T05:57:52;7.82;;;3.90;;
48550;SDS011;34397;51.176;6.738;2023-04-15T06:00:24;13.25;;;4.82;;
48550;SDS011;34397;51.176;6.738;2023-04-15T06:02:56;9.20;;;4.78;;
48550;SDS011;34397;51.176;6.738;2023-04-15T06:05:30;10.07;;;4.97;;
48550;SDS011;34397;51.176;6.738;2023-04-15T06:08:02;7.20;;;4.68;;
48550;SDS011;34397;51.176;6.738;2023-04-15T06:10:34;8.52;;;5.25;;
48550;SDS011;34397;51.176;6.738;2023-04-15T06:13:06;6.47;;;4.43;;
48550;SDS011;34397;51.176;6.738;2023-04-15T06:15:38;10.45;;;5.70;;
48550;SDS011;34397;51.176;6.738;2023-04-15T06:18:10;9.25;;;5.40;;
48550;SDS011;34397;51.176;6.738;2023-04-15T06:20:43;8.63;;;5.25;;
48550;SDS011;34397;51.176;6.738;2023-04-15T06:23:15;9.00;;;5.10;;
48550;SDS011;34397;51.176;6.738;2023-04-15T06:25:47;9.95;;;5.10;;
48550;SDS011;34397;51.176;6.738;2023-04-15T06:28:19;9.70;;;5.63;;
48550;SDS011;34397;51.176;6.738;2023-04-15T06:30:51;9.90;;;5.43;;
48550;SDS011;34397;51.176;6.738;2023-04-15T06:33:23;9.55;;;5.68;;
48550;SDS011;34397;51.176;6.738;2023-04-15T06:35:56;8.57;;;5.70;;
48550;SDS011;34397;51.176;6.738;2023-04-15T06:38:28;12.20;;;6.05;;
48550;SDS011;34397;51.176;6.738;2023-04-15T06:41:00;8.27;;;5.82;;
48550;SDS011;34397;51.176;6.738;2023-04-15T06:43:33;9.05;;;5.55;;
48550;SDS011;34397;51.176;6.738;2023-04-15T06:46:05;10.65;;;5.90;;
48550;SDS011;34397;51.176;6.738;2023-04-15T06:48:37;7.93;;;5.93;;
48550;SDS011;34397;51.176;6.738;2023-04-15T06:51:10;9.88;;;6.05;;
48550;SDS011;34397;51.176;6.738;2023-04-15T06:53:42;8.25;;;6.05;;
48550;SDS011;34397;51.176;6.738;2023-04-15T06:56:13;7.82;;;6.00;;
48550;SDS011;34397;51.176;6.738;2023-04-15T06:58:45;9.52;;;5.90;;
48550;SDS011;34397;51.176;6.738;2023-04-15T07:01:17;10.90;;;6.82;;
48550;SDS011;34397;51.176;6.738;2023-04-15T07:03:50;10.48;;;6.60;;
48550;SDS011;34397;51.176;6.738;2023-04-15T07:06:23;7.57;;;5.72;;
48550;SDS011;34397;51.176;6.738;2023-04-15T07:08:55;8.45;;;5.95;;
48550;SDS011;34397;51.176;6.738;2023-04-15T07:11:27;7.97;;;6.00;;
48550;SDS011;34397;51.176;6.738;2023-04-15T07:13:59;8.10;;;6.28;;
48550;SDS011;34397;51.176;6.738;2023-04-15T07:16:31;12.40;;;7.00;;
48550;SDS011;34397;51.176;6.738;2023-04-15T07:19:03;8.40;;;5.85;;
48550;SDS011;34397;51.176;6.738;2023-04-15T07:21:36;7.05;;;6.00;;
48550;SDS011;34397;51.176;6.738;2023-04-15T07:24:08;6.93;;;5.03;;
48550;SDS011;34397;51.176;6.738;2023-04-15T07:26:40;6.82;;;4.90;;
48550;SDS011;34397;51.176;6.738;2023-04-15T07:29:12;7.28;;;5.18;;
48550;SDS011;34397;51.176;6.738;2023-04-15T07:31:44;6.30;;;4.38;;
48550;SDS011;34397;51.176;6.738;2023-04-15T07:34:16;7.05;;;4.88;;
48550;SDS011;34397;51.176;6.738;2023-04-15T07:36:51;7.00;;;5.00;;
48550;SDS011;34397;51.176;6.738;2023-04-15T07:39:22;6.38;;;4.57;;
48550;SDS011;34397;51.176;6.738;2023-04-15T07:41:54;5.88;;;3.50;;
48550;SDS011;34397;51.176;6.738;2023-04-15T07:44:28;5.03;;;3.17;;
48550;SDS011;34397;51.176;6.738;2023-04-15T07:47:00;4.97;;;3.13;;
48550;SDS011;34397;51.176;6.738;2023-04-15T07:49:33;3.80;;;2.67;;
48550;SDS011;34397;51.176;6.738;2023-04-15T07:52:06;5.15;;;3.30;;
48550;SDS011;34397;51.176;6.738;2023-04-15T07:54:37;4.10;;;2.40;;
48550;SDS011;34397;51.176;6.738;2023-04-15T07:57:09;3.47;;;2.75;;
48550;SDS011;34397;51.176;6.738;2023-04-15T07:59:41;4.03;;;2.60;;
48550;SDS011;34397;51.176;6.738;2023-04-15T08:02:13;3.80;;;2.40;;
48550;SDS011;34397;51.176;6.738;2023-04-15T08:04:45;3.13;;;2.40;;
48550;SDS011;34397;51.176;6.738;2023-04-15T08:12:22;3.58;;;2.45;;
48550;SDS011;34397;51.176;6.738;2023-04-15T08:14:54;5.38;;;2.85;;
48550;SDS011;34397;51.176;6.738;2023-04-15T08:17:26;6.47;;;2.55;;
48550;SDS011;34397;51.176;6.738;2023-04-15T08:19:58;3.25;;;2.53;;
48550;SDS011;34397;51.176;6.738;2023-04-15T08:22:31;3.75;;;2.60;;
48550;SDS011;34397;51.176;6.738;2023-04-15T08:25:03;3.38;;;2.20;;
48550;SDS011;34397;51.176;6.738;2023-04-15T08:27:36;2.65;;;2.00;;
48550;SDS011;34397;51.176;6.738;2023-04-15T08:30:08;2.13;;;1.77;;
48550;SDS011;34397;51.176;6.738;2023-04-15T08:32:40;2.38;;;2.00;;
48550;SDS011;34397;51.176;6.738;2023-04-15T08:35:16;5.13;;;2.45;;
48550;SDS011;34397;51.176;6.738;2023-04-15T08:37:49;4.95;;;2.50;;
48550;SDS011;34397;51.176;6.738;2023-04-15T08:40:21;3.08;;;2.25;;
48550;SDS011;34397;51.176;6.738;2023-04-15T08:42:55;4.32;;;2.22;;
48550;SDS011;34397;51.176;6.738;2023-04-15T08:45:29;3.22;;;2.50;;
48550;SDS011;34397;51.176;6.738;2023-04-15T08:48:01;4.18;;;2.50;;
48550;SDS011;34397;51.176;6.738;2023-04-15T08:50:36;3.88;;;2.17;;
48550;SDS011;34397;51.176;6.738;2023-04-15T08:53:09;2.90;;;2.30;;
48550;SDS011;34397;51.176;6.738;2023-04-15T08:55:43;2.88;;;2.42;;
48550;SDS011;34397;51.176;6.738;2023-04-15T08:58:16;3.58;;;2.13;;
48550;SDS011;34397;51.176;6.738;2023-04-15T09:00:49;3.13;;;2.53;;
48550;SDS011;34397;51.176;6.738;2023-04-15T09:03:21;5.07;;;2.25;;
48550;SDS011;34397;51.176;6.738;2023-04-15T09:05:53;4.30;;;2.40;;
48550;SDS011;34397;51.176;6.738;2023-04-15T09:08:27;3.67;;;2.70;;
48550;SDS011;34397;51.176;6.738;2023-04-15T09:10:59;4.80;;;2.58;;
48550;SDS011;34397;51.176;6.738;2023-04-15T09:16:04;5.10;;;3.00;;
48550;SDS011;34397;51.176;6.738;2023-04-15T09:18:37;3.83;;;2.75;;
48550;SDS011;34397;51.176;6.738;2023-04-15T09:21:10;4.28;;;3.00;;
48550;SDS011;34397;51.176;6.738;2023-04-15T09:23:55;5.43;;;2.78;;
48550;SDS011;34397;51.176;6.738;2023-04-15T09:26:29;3.28;;;2.85;;
48550;SDS011;34397;51.176;6.738;2023-04-15T09:29:04;4.35;;;2.58;;
48550;SDS011;34397;51.176;6.738;2023-04-15T09:31:38;2.55;;;2.00;;
48550;SDS011;34397;51.176;6.738;2023-04-15T09:34:10;3.42;;;2.10;;
48550;SDS011;34397;51.176;6.738;2023-04-15T09:36:52;3.53;;;2.03;;
48550;SDS011;34397;51.176;6.738;2023-04-15T09:39:27;2.97;;;1.90;;
48550;SDS011;34397;51.176;6.738;2023-04-15T09:42:17;1.75;;;1.38;;
48550;SDS011;34397;51.176;6.738;2023-04-15T09:44:53;2.70;;;1.40;;
48550;SDS011;34397;51.176;6.738;2023-04-15T09:47:28;4.65;;;1.20;;
48550;SDS011;34397;51.176;6.738;2023-04-15T09:50:01;2.42;;;1.38;;
48550;SDS011;34397;51.176;6.738;2023-04-15T09:52:33;1.15;;;1.00;;
48550;SDS011;34397;51.176;6.738;2023-04-15T09:55:14;1.77;;;1.17;;
48550;SDS011;34397;51.176;6.738;2023-04-15T09:57:48;1.00;;;0.90;;
48550;SDS011;34397;51.176;6.738;2023-04-15T10:00:20;1.65;;;1.35;;
48550;SDS011;34397;51.176;6.738;2023-04-15T10:02:51;2.58;;;1.50;;
48550;SDS011;34397;51.176;6.738;2023-04-15T10:05:24;2.92;;;1.55;;
48550;SDS011;34397;51.176;6.738;2023-04-15T10:07:56;3.45;;;1.70;;
48550;SDS011;34397;51.176;6.738;2023-04-15T10:10:29;2.25;;;1.60;;
48550;SDS011;34397;51.176;6.738;2023-04-15T10:13:02;2.67;;;1.73;;
48550;SDS011;34397;51.176;6.738;2023-04-15T10:15:35;2.80;;;1.70;;
48550;SDS011;34397;51.176;6.738;2023-04-15T10:18:07;2.45;;;1.80;;
48550;SDS011;34397;51.176;6.738;2023-04-15T10:20:41;2.55;;;1.65;;
48550;SDS011;34397;51.176;6.738;2023-04-15T10:23:14;2.38;;;1.50;;
48550;SDS011;34397;51.176;6.738;2023-04-15T10:25:49;1.75;;;1.40;;
48550;SDS011;34397;51.176;6.738;2023-04-15T10:28:23;1.83;;;1.50;;
48550;SDS011;34397;51.176;6.738;2023-04-15T10:30:56;2.58;;;1.50;;
48550;SDS011;34397;51.176;6.738;2023-04-15T10:33:29;2.25;;;1.50;;
48550;SDS011;34397;51.176;6.738;2023-04-15T10:36:01;1.73;;;1.58;;
48550;SDS011;34397;51.176;6.738;2023-04-15T10:38:34;1.83;;;1.52;;
48550;SDS011;34397;51.176;6.738;2023-04-15T10:41:13;1.58;;;1.45;;
48550;SDS011;34397;51.176;6.738;2023-04-15T10:43:49;1.58;;;1.45;;
48550;SDS011;34397;51.176;6.738;2023-04-15T10:46:23;2.10;;;1.30;;
48550;SDS011;34397;51.176;6.738;2023-04-15T10:49:07;5.28;;;1.50;;
48550;SDS011;34397;51.176;6.738;2023-04-15T10:51:41;2.05;;;1.38;;
48550;SDS011;34397;51.176;6.738;2023-04-15T10:54:16;1.42;;;1.25;;
48550;SDS011;34397;51.176;6.738;2023-04-15T10:57:13;1.50;;;1.30;;
48550;SDS011;34397;51.176;6.738;2023-04-15T11:02:44;1.67;;;1.25;;
48550;SDS011;34397;51.176;6.738;2023-04-15T11:05:18;1.88;;;1.50;;
48550;SDS011;34397;51.176;6.738;2023-04-15T11:07:52;1.30;;;1.20;;
48550;SDS011;34397;51.176;6.738;2023-04-15T11:13:24;2.13;;;1.38;;
48550;SDS011;34397;51.176;6.738;2023-04-15T11:15:58;1.15;;;1.05;;
48550;SDS011;34397;51.176;6.738;2023-04-15T11:18:32;1.38;;;1.20;;
48550;SDS011;34397;51.176;6.738;2023-04-15T11:21:05;1.20;;;1.10;;
48550;SDS011;34397;51.176;6.738;2023-04-15T11:23:38;1.50;;;1.33;;
48550;SDS011;34397;51.176;6.738;2023-04-15T11:26:16;2.85;;;1.52;;
48550;SDS011;34397;51.176;6.738;2023-04-15T11:31:20;2.40;;;1.60;;
48550;SDS011;34397;51.176;6.738;2023-04-15T11:33:54;1.75;;;1.63;;
48550;SDS011;34397;51.176;6.738;2023-04-15T11:36:28;2.00;;;1.60;;
48550;SDS011;34397;51.176;6.738;2023-04-15T11:39:01;3.78;;;1.65;;
48550;SDS011;34397;51.176;6.738;2023-04-15T11:41:34;2.47;;;2.22;;
48550;SDS011;34397;51.176;6.738;2023-04-15T11:44:16;3.20;;;2.75;;
48550;SDS011;34397;51.176;6.738;2023-04-15T11:46:48;4.15;;;2.88;;
48550;SDS011;34397;51.176;6.738;2023-04-15T11:49:27;4.30;;;3.38;;
48550;SDS011;34397;51.176;6.738;2023-04-15T11:51:59;3.35;;;3.05;;
48550;SDS011;34397;51.176;6.738;2023-04-15T11:54:31;4.05;;;3.45;;
48550;SDS011;34397;51.176;6.738;2023-04-15T11:57:03;3.28;;;2.78;;
48550;SDS011;34397;51.176;6.738;2023-04-15T11:59:41;3.47;;;3.00;;
48550;SDS011;34397;51.176;6.738;2023-04-15T12:02:14;3.95;;;3.00;;
48550;SDS011;34397;51.176;6.738;2023-04-15T12:07:18;3.67;;;2.73;;
48550;SDS011;34397;51.176;6.738;2023-04-15T12:09:53;3.97;;;3.00;;
48550;SDS011;34397;51.176;6.738;2023-04-15T12:12:26;3.42;;;3.13;;
48550;SDS011;34397;51.176;6.738;2023-04-15T12:15:01;4.28;;;3.55;;
48550;SDS011;34397;51.176;6.738;2023-04-15T12:17:33;4.50;;;3.50;;
48550;SDS011;34397;51.176;6.738;2023-04-15T12:20:05;3.95;;;2.83;;
48550;SDS011;34397;51.176;6.738;2023-04-15T12:22:38;3.88;;;3.47;;
48550;SDS011;34397;51.176;6.738;2023-04-15T12:25:10;3.65;;;3.30;;
48550;SDS011;34397;51.176;6.738;2023-04-15T12:27:49;3.40;;;2.70;;
48550;SDS011;34397;51.176;6.738;2023-04-15T12:30:23;3.17;;;2.58;;
48550;SDS011;34397;51.176;6.738;2023-04-15T12:32:56;8.73;;;2.83;;
48550;SDS011;34397;51.176;6.738;2023-04-15T12:35:28;2.80;;;2.30;;
48550;SDS011;34397;51.176;6.738;2023-04-15T12:38:00;5.03;;;3.08;;
48550;SDS011;34397;51.176;6.738;2023-04-15T12:40:32;2.45;;;2.22;;
48550;SDS011;34397;51.176;6.738;2023-04-15T12:43:04;2.47;;;2.28;;
48550;SDS011;34397;51.176;6.738;2023-04-15T12:45:38;2.42;;;2.10;;
48550;SDS011;34397;51.176;6.738;2023-04-15T12:48:10;2.55;;;2.10;;
48550;SDS011;34397;51.176;6.738;2023-04-15T12:53:14;3.20;;;2.85;;
48550;SDS011;34397;51.176;6.738;2023-04-15T12:55:46;4.22;;;2.60;;
48550;SDS011;34397;51.176;6.738;2023-04-15T12:58:18;7.20;;;2.45;;
48550;SDS011;34397;51.176;6.738;2023-04-15T13:03:23;2.78;;;2.30;;
48550;SDS011;34397;51.176;6.738;2023-04-15T13:05:55;2.35;;;2.00;;
48550;SDS011;34397;51.176;6.738;2023-04-15T13:11:00;2.30;;;2.10;;
48550;SDS011;34397;51.176;6.738;2023-04-15T13:13:32;2.10;;;1.90;;
48550;SDS011;34397;51.176;6.738;2023-04-15T13:16:05;1.70;;;1.52;;
48550;SDS011;34397;51.176;6.738;2023-04-15T13:18:38;2.30;;;1.70;;
48550;SDS011;34397;51.176;6.738;2023-04-15T13:21:11;2.35;;;1.75;;
48550;SDS011;34397;51.176;6.738;2023-04-15T13:23:43;3.35;;;1.48;;
48550;SDS011;34397;51.176;6.738;2023-04-15T13:26:15;2.00;;;1.48;;
48550;SDS011;34397;51.176;6.738;2023-04-15T13:31:20;2.95;;;1.50;;
48550;SDS011;34397;51.176;6.738;2023-04-15T13:33:52;2.00;;;1.70;;
48550;SDS011;34397;51.176;6.738;2023-04-15T13:36:24;1.88;;;1.67;;
48550;SDS011;34397;51.176;6.738;2023-04-15T13:38:56;3.95;;;2.17;;
48550;SDS011;34397;51.176;6.738;2023-04-15T13:41:28;2.42;;;2.03;;
48550;SDS011;34397;51.176;6.738;2023-04-15T13:44:01;2.50;;;2.05;;
48550;SDS011;34397;51.176;6.738;2023-04-15T13:46:35;2.95;;;2.00;;
48550;SDS011;34397;51.176;6.738;2023-04-15T13:49:08;4.47;;;2.58;;
48550;SDS011;34397;51.176;6.738;2023-04-15T13:51:40;2.53;;;2.00;;
48550;SDS011;34397;51.176;6.738;2023-04-15T13:54:12;1.98;;;1.60;;
48550;SDS011;34397;51.176;6.738;2023-04-15T13:56:44;3.88;;;2.10;;
48550;SDS011;34397;51.176;6.738;2023-04-15T13:59:16;4.95;;;2.20;;
48550;SDS011;34397;51.176;6.738;2023-04-15T14:01:49;3.70;;;2.33;;
48550;SDS011;34397;51.176;6.738;2023-04-15T14:04:22;2.83;;;2.10;;
48550;SDS011;34397;51.176;6.738;2023-04-15T14:06:54;2.63;;;2.03;;
48550;SDS011;34397;51.176;6.738;2023-04-15T14:09:26;3.10;;;2.20;;
48550;SDS011;34397;51.176;6.738;2023-04-15T14:11:58;3.40;;;2.58;;
48550;SDS011;34397;51.176;6.738;2023-04-15T14:14:31;3.78;;;2.40;;
48550;SDS011;34397;51.176;6.738;2023-04-15T14:17:05;2.35;;;1.88;;
48550;SDS011;34397;51.176;6.738;2023-04-15T14:19:39;2.28;;;1.80;;
48550;SDS011;34397;51.176;6.738;2023-04-15T14:22:11;2.85;;;1.75;;
48550;SDS011;34397;51.176;6.738;2023-04-15T14:24:43;3.85;;;1.60;;
48550;SDS011;34397;51.176;6.738;2023-04-15T14:27:17;3.28;;;1.40;;
48550;SDS011;34397;51.176;6.738;2023-04-15T14:32:25;2.95;;;1.83;;
48550;SDS011;34397;51.176;6.738;2023-04-15T14:34:57;2.75;;;1.67;;
48550;SDS011;34397;51.176;6.738;2023-04-15T14:37:29;2.00;;;1.50;;
48550;SDS011;34397;51.176;6.738;2023-04-15T14:40:01;1.98;;;1.40;;
48550;SDS011;34397;51.176;6.738;2023-04-15T14:45:07;2.95;;;1.88;;
48550;SDS011;34397;51.176;6.738;2023-04-15T14:47:41;1.80;;;1.45;;
48550;SDS011;34397;51.176;6.738;2023-04-15T14:50:13;1.92;;;1.70;;
48550;SDS011;34397;51.176;6.738;2023-04-15T14:52:45;2.78;;;1.77;;
48550;SDS011;34397;51.176;6.738;2023-04-15T14:57:50;4.00;;;2.00;;
48550;SDS011;34397;51.176;6.738;2023-04-15T15:00:22;3.92;;;1.90;;
48550;SDS011;34397;51.176;6.738;2023-04-15T15:02:55;2.35;;;1.50;;
48550;SDS011;34397;51.176;6.738;2023-04-15T15:05:27;2.67;;;1.60;;
48550;SDS011;34397;51.176;6.738;2023-04-15T15:07:59;2.15;;;1.17;;
48550;SDS011;34397;51.176;6.738;2023-04-15T15:10:31;1.80;;;1.42;;
48550;SDS011;34397;51.176;6.738;2023-04-15T15:13:03;2.70;;;1.52;;
48550;SDS011;34397;51.176;6.738;2023-04-15T15:15:37;3.75;;;1.30;;
48550;SDS011;34397;51.176;6.738;2023-04-15T15:20:42;1.83;;;1.33;;
48550;SDS011;34397;51.176;6.738;2023-04-15T15:23:14;2.22;;;1.55;;
48550;SDS011;34397;51.176;6.738;2023-04-15T15:25:46;2.55;;;1.60;;
48550;SDS011;34397;51.176;6.738;2023-04-15T15:28:18;2.13;;;1.40;;
48550;SDS011;34397;51.176;6.738;2023-04-15T15:30:51;2.55;;;1.40;;
48550;SDS011;34397;51.176;6.738;2023-04-15T15:33:24;2.53;;;1.58;;
48550;SDS011;34397;51.176;6.738;2023-04-15T15:35:56;4.05;;;1.50;;
48550;SDS011;34397;51.176;6.738;2023-04-15T15:38:28;3.42;;;1.70;;
48550;SDS011;34397;51.176;6.738;2023-04-15T15:41:00;1.70;;;1.25;;
48550;SDS011;34397;51.176;6.738;2023-04-15T15:43:32;2.00;;;1.60;;
48550;SDS011;34397;51.176;6.738;2023-04-15T15:46:06;2.75;;;1.67;;
48550;SDS011;34397;51.176;6.738;2023-04-15T15:48:40;2.30;;;1.30;;
48550;SDS011;34397;51.176;6.738;2023-04-15T15:51:12;2.78;;;1.58;;
48550;SDS011;34397;51.176;6.738;2023-04-15T15:53:44;2.45;;;1.30;;
48550;SDS011;34397;51.176;6.738;2023-04-15T15:56:16;4.03;;;1.40;;
48550;SDS011;34397;51.176;6.738;2023-04-15T15:58:47;1.77;;;1.40;;
48550;SDS011;34397;51.176;6.738;2023-04-15T16:01:19;3.45;;;1.30;;
48550;SDS011;34397;51.176;6.738;2023-04-15T16:03:53;3.30;;;2.20;;
48550;SDS011;34397;51.176;6.738;2023-04-15T16:06:25;3.15;;;1.27;;
48550;SDS011;34397;51.176;6.738;2023-04-15T16:08:57;2.47;;;1.48;;
48550;SDS011;34397;51.176;6.738;2023-04-15T16:11:29;1.73;;;1.23;;
48550;SDS011;34397;51.176;6.738;2023-04-15T16:14:01;2.22;;;1.27;;
48550;SDS011;34397;51.176;6.738;2023-04-15T16:16:34;2.83;;;1.75;;
48550;SDS011;34397;51.176;6.738;2023-04-15T16:19:07;1.50;;;1.20;;
48550;SDS011;34397;51.176;6.738;2023-04-15T16:21:39;2.15;;;1.58;;
48550;SDS011;34397;51.176;6.738;2023-04-15T16:24:11;3.30;;;1.30;;
48550;SDS011;34397;51.176;6.738;2023-04-15T16:26:43;3.72;;;1.60;;
48550;SDS011;34397;51.176;6.738;2023-04-15T16:29:15;2.55;;;1.50;;
48550;SDS011;34397;51.176;6.738;2023-04-15T16:31:50;1.80;;;1.48;;
48550;SDS011;34397;51.176;6.738;2023-04-15T16:34:24;1.85;;;1.20;;
48550;SDS011;34397;51.176;6.738;2023-04-15T16:36:58;1.65;;;1.40;;
48550;SDS011;34397;51.176;6.738;2023-04-15T16:39:32;2.22;;;1.25;;
48550;SDS011;34397;51.176;6.738;2023-04-15T16:42:05;1.63;;;1.13;;
48550;SDS011;34397;51.176;6.738;2023-04-15T16:44:52;2.80;;;1.42;;
48550;SDS011;34397;51.176;6.738;2023-04-15T16:47:27;2.85;;;1.27;;
48550;SDS011;34397;51.176;6.738;2023-04-15T16:50:00;1.88;;;1.00;;
48550;SDS011;34397;51.176;6.738;2023-04-15T16:52:33;1.70;;;1.10;;
48550;SDS011;34397;51.176;6.738;2023-04-15T16:55:05;2.65;;;1.20;;
48550;SDS011;34397;51.176;6.738;2023-04-15T16:57:40;1.00;;;0.90;;
48550;SDS011;34397;51.176;6.738;2023-04-15T17:00:13;1.52;;;1.25;;
48550;SDS011;34397;51.176;6.738;2023-04-15T17:05:18;2.05;;;0.93;;
48550;SDS011;34397;51.176;6.738;2023-04-15T17:07:50;1.85;;;1.30;;
48550;SDS011;34397;51.176;6.738;2023-04-15T17:10:22;1.42;;;0.98;;
48550;SDS011;34397;51.176;6.738;2023-04-15T17:12:54;1.73;;;1.20;;
48550;SDS011;34397;51.176;6.738;2023-04-15T17:15:27;1.58;;;1.15;;